sensor_id;sensor_type;location;lat;lon;timestamp;temperature;humidity
5743;DHT22;2896;53.500;10.020;2022-09-20T00:02:14;8.50;99.90
5743;DHT22;2896;53.500;10.020;2022-09-20T00:04:41;8.50;99.90
5743;DHT22;2896;53.500;10.020;2022-09-20T00:07:08;8.50;99.90
5743;DHT22;2896;53.500;10.020;2022-09-20T00:09:35;8.60;99.90
5743;DHT22;2896;53.500;10.020;2022-09-20T00:12:01;8.60;99.90
5743;DHT22;2896;53.500;10.020;2022-09-20T00:14:29;8.50;99.90
5743;DHT22;2896;53.500;10.020;2022-09-20T00:16:56;8.50;99.90
5743;DHT22;2896;53.500;10.020;2022-09-20T00:19:22;8.70;99.90
5743;DHT22;2896;53.500;10.020;2022-09-20T00:21:49;8.60;99.90
5743;DHT22;2896;53.500;10.020;2022-09-20T00:24:16;8.60;99.90
5743;DHT22;2896;53.500;10.020;2022-09-20T00:26:43;8.60;99.90
5743;DHT22;2896;53.500;10.020;2022-09-20T00:29:10;8.60;99.90
5743;DHT22;2896;53.500;10.020;2022-09-20T00:31:39;8.50;99.90
5743;DHT22;2896;53.500;10.020;2022-09-20T00:34:08;8.50;99.90
5743;DHT22;2896;53.500;10.020;2022-09-20T00:36:53;8.50;99.90
5743;DHT22;2896;53.500;10.020;2022-09-20T00:39:19;8.40;99.90
5743;DHT22;2896;53.500;10.020;2022-09-20T00:41:46;8.40;99.90
5743;DHT22;2896;53.500;10.020;2022-09-20T00:44:40;8.40;99.90
5743;DHT22;2896;53.500;10.020;2022-09-20T00:47:13;8.40;99.90
5743;DHT22;2896;53.500;10.020;2022-09-20T00:49:42;8.30;99.90
5743;DHT22;2896;53.500;10.020;2022-09-20T00:52:09;7.30;99.90
5743;DHT22;2896;53.500;10.020;2022-09-20T00:54:36;8.30;99.90
5743;DHT22;2896;53.500;10.020;2022-09-20T00:57:03;8.30;99.90
5743;DHT22;2896;53.500;10.020;2022-09-20T00:59:32;8.30;99.90
5743;DHT22;2896;53.500;10.020;2022-09-20T01:02:02;8.30;99.90
5743;DHT22;2896;53.500;10.020;2022-09-20T01:04:33;8.30;99.90
5743;DHT22;2896;53.500;10.020;2022-09-20T01:07:02;8.20;99.90
5743;DHT22;2896;53.500;10.020;2022-09-20T01:09:31;8.20;99.90
5743;DHT22;2896;53.500;10.020;2022-09-20T01:12:01;8.20;99.90
5743;DHT22;2896;53.500;10.020;2022-09-20T01:14:29;8.20;99.90
5743;DHT22;2896;53.500;10.020;2022-09-20T01:16:58;8.10;99.90
5743;DHT22;2896;53.500;10.020;2022-09-20T01:19:34;8.00;99.90
5743;DHT22;2896;53.500;10.020;2022-09-20T01:22:07;8.00;99.90
5743;DHT22;2896;53.500;10.020;2022-09-20T01:24:41;8.00;99.90
5743;DHT22;2896;53.500;10.020;2022-09-20T01:27:17;7.90;99.90
5743;DHT22;2896;53.500;10.020;2022-09-20T01:30:00;7.90;99.90
5743;DHT22;2896;53.500;10.020;2022-09-20T01:32:37;7.80;99.90
5743;DHT22;2896;53.500;10.020;2022-09-20T01:35:07;7.80;99.90
5743;DHT22;2896;53.500;10.020;2022-09-20T01:37:41;7.80;99.90
5743;DHT22;2896;53.500;10.020;2022-09-20T01:40:18;7.80;99.90
5743;DHT22;2896;53.500;10.020;2022-09-20T01:43:05;7.80;99.90
5743;DHT22;2896;53.500;10.020;2022-09-20T01:45:35;7.80;99.90
5743;DHT22;2896;53.500;10.020;2022-09-20T01:48:12;7.70;99.90
5743;DHT22;2896;53.500;10.020;2022-09-20T01:50:59;7.70;99.90
5743;DHT22;2896;53.500;10.020;2022-09-20T01:56:55;7.70;99.90
5743;DHT22;2896;53.500;10.020;2022-09-20T01:59:49;7.60;99.90
5743;DHT22;2896;53.500;10.020;2022-09-20T02:12:12;7.50;99.90
5743;DHT22;2896;53.500;10.020;2022-09-20T02:14:54;7.50;99.90
5743;DHT22;2896;53.500;10.020;2022-09-20T02:17:28;7.50;99.90
5743;DHT22;2896;53.500;10.020;2022-09-20T02:20:03;7.60;99.90
5743;DHT22;2896;53.500;10.020;2022-09-20T02:22:51;7.60;99.90
5743;DHT22;2896;53.500;10.020;2022-09-20T02:25:50;7.60;99.90
5743;DHT22;2896;53.500;10.020;2022-09-20T02:28:25;7.60;99.90
5743;DHT22;2896;53.500;10.020;2022-09-20T02:31:00;7.60;99.90
5743;DHT22;2896;53.500;10.020;2022-09-20T02:33:46;7.60;99.90
5743;DHT22;2896;53.500;10.020;2022-09-20T02:36:35;7.50;99.90
5743;DHT22;2896;53.500;10.020;2022-09-20T02:39:11;7.60;99.90
5743;DHT22;2896;53.500;10.020;2022-09-20T02:41:53;7.50;99.90
5743;DHT22;2896;53.500;10.020;2022-09-20T02:44:37;7.50;99.90
5743;DHT22;2896;53.500;10.020;2022-09-20T02:47:11;7.40;99.90
5743;DHT22;2896;53.500;10.020;2022-09-20T02:49:52;10.00;99.90
5743;DHT22;2896;53.500;10.020;2022-09-20T02:52:28;7.40;99.90
5743;DHT22;2896;53.500;10.020;2022-09-20T02:55:04;7.40;99.90
5743;DHT22;2896;53.500;10.020;2022-09-20T02:57:39;7.50;99.90
5743;DHT22;2896;53.500;10.020;2022-09-20T03:00:10;7.50;99.90
5743;DHT22;2896;53.500;10.020;2022-09-20T03:02:45;7.50;99.90
5743;DHT22;2896;53.500;10.020;2022-09-20T03:05:20;7.50;99.90
5743;DHT22;2896;53.500;10.020;2022-09-20T03:08:08;7.50;99.90
5743;DHT22;2896;53.500;10.020;2022-09-20T03:10:40;7.50;99.90
5743;DHT22;2896;53.500;10.020;2022-09-20T03:13:18;7.60;99.90
5743;DHT22;2896;53.500;10.020;2022-09-20T03:15:56;7.60;99.90
5743;DHT22;2896;53.500;10.020;2022-09-20T03:18:33;7.60;99.90
5743;DHT22;2896;53.500;10.020;2022-09-20T03:21:20;7.60;99.90
5743;DHT22;2896;53.500;10.020;2022-09-20T03:23:59;7.60;99.90
5743;DHT22;2896;53.500;10.020;2022-09-20T03:26:36;7.50;99.90
5743;DHT22;2896;53.500;10.020;2022-09-20T03:29:17;7.50;99.90
5743;DHT22;2896;53.500;10.020;2022-09-20T03:31:59;7.40;99.90
5743;DHT22;2896;53.500;10.020;2022-09-20T03:34:40;7.50;99.90
5743;DHT22;2896;53.500;10.020;2022-09-20T03:37:27;7.50;99.90
5743;DHT22;2896;53.500;10.020;2022-09-20T03:40:18;7.40;99.90
5743;DHT22;2896;53.500;10.020;2022-09-20T03:42:51;7.30;99.90
5743;DHT22;2896;53.500;10.020;2022-09-20T03:48:34;7.30;99.90
5743;DHT22;2896;53.500;10.020;2022-09-20T03:51:15;7.30;99.90
5743;DHT22;2896;53.500;10.020;2022-09-20T03:54:11;7.20;99.90
5743;DHT22;2896;53.500;10.020;2022-09-20T03:57:07;7.20;99.90
5743;DHT22;2896;53.500;10.020;2022-09-20T04:02:52;7.10;99.90
5743;DHT22;2896;53.500;10.020;2022-09-20T04:05:25;7.10;99.90
5743;DHT22;2896;53.500;10.020;2022-09-20T04:08:04;7.10;99.90
5743;DHT22;2896;53.500;10.020;2022-09-20T04:10:39;6.90;99.90
5743;DHT22;2896;53.500;10.020;2022-09-20T04:13:23;7.00;99.90
5743;DHT22;2896;53.500;10.020;2022-09-20T04:16:02;6.90;99.90
5743;DHT22;2896;53.500;10.020;2022-09-20T04:18:34;6.80;99.90
5743;DHT22;2896;53.500;10.020;2022-09-20T04:21:06;6.80;99.90
5743;DHT22;2896;53.500;10.020;2022-09-20T04:23:44;6.80;99.90
5743;DHT22;2896;53.500;10.020;2022-09-20T04:26:14;6.80;99.90
5743;DHT22;2896;53.500;10.020;2022-09-20T04:28:47;6.80;99.90
5743;DHT22;2896;53.500;10.020;2022-09-20T04:31:29;6.80;99.90
5743;DHT22;2896;53.500;10.020;2022-09-20T04:33:59;6.80;99.90
5743;DHT22;2896;53.500;10.020;2022-09-20T04:36:36;6.80;99.90
5743;DHT22;2896;53.500;10.020;2022-09-20T04:39:20;6.80;99.90
5743;DHT22;2896;53.500;10.020;2022-09-20T04:42:09;6.70;99.90
5743;DHT22;2896;53.500;10.020;2022-09-20T04:45:08;6.60;99.90
5743;DHT22;2896;53.500;10.020;2022-09-20T04:48:08;6.70;99.90
5743;DHT22;2896;53.500;10.020;2022-09-20T04:50:56;6.70;99.90
5743;DHT22;2896;53.500;10.020;2022-09-20T04:56:52;6.80;99.90
5743;DHT22;2896;53.500;10.020;2022-09-20T04:59:28;6.80;99.90
5743;DHT22;2896;53.500;10.020;2022-09-20T05:02:35;6.80;99.90
5743;DHT22;2896;53.500;10.020;2022-09-20T05:05:40;6.80;99.90
5743;DHT22;2896;53.500;10.020;2022-09-20T05:08:42;6.70;99.90
5743;DHT22;2896;53.500;10.020;2022-09-20T05:11:46;6.60;99.90
5743;DHT22;2896;53.500;10.020;2022-09-20T05:17:14;6.60;99.90
5743;DHT22;2896;53.500;10.020;2022-09-20T05:19:53;6.60;99.90
5743;DHT22;2896;53.500;10.020;2022-09-20T05:22:55;6.60;99.90
5743;DHT22;2896;53.500;10.020;2022-09-20T05:25:41;6.50;99.90
5743;DHT22;2896;53.500;10.020;2022-09-20T05:28:15;6.50;99.90
5743;DHT22;2896;53.500;10.020;2022-09-20T05:30:46;6.60;99.90
5743;DHT22;2896;53.500;10.020;2022-09-20T05:33:18;6.60;99.90
5743;DHT22;2896;53.500;10.020;2022-09-20T05:35:55;6.60;99.90
5743;DHT22;2896;53.500;10.020;2022-09-20T05:38:31;6.70;99.90
5743;DHT22;2896;53.500;10.020;2022-09-20T05:41:07;6.60;99.90
5743;DHT22;2896;53.500;10.020;2022-09-20T05:43:46;6.70;99.90
5743;DHT22;2896;53.500;10.020;2022-09-20T05:46:17;6.70;99.90
5743;DHT22;2896;53.500;10.020;2022-09-20T05:48:57;6.70;99.90
5743;DHT22;2896;53.500;10.020;2022-09-20T05:51:40;6.70;99.90
5743;DHT22;2896;53.500;10.020;2022-09-20T05:54:30;6.90;99.90
5743;DHT22;2896;53.500;10.020;2022-09-20T05:57:13;7.00;99.90
5743;DHT22;2896;53.500;10.020;2022-09-20T05:59:52;7.20;99.90
5743;DHT22;2896;53.500;10.020;2022-09-20T06:02:37;7.30;99.90
5743;DHT22;2896;53.500;10.020;2022-09-20T06:05:11;7.50;99.90
5743;DHT22;2896;53.500;10.020;2022-09-20T06:07:50;7.50;99.90
5743;DHT22;2896;53.500;10.020;2022-09-20T06:10:38;7.70;99.90
5743;DHT22;2896;53.500;10.020;2022-09-20T06:13:18;7.80;99.90
5743;DHT22;2896;53.500;10.020;2022-09-20T06:15:55;7.90;99.90
5743;DHT22;2896;53.500;10.020;2022-09-20T06:18:25;8.10;99.90
5743;DHT22;2896;53.500;10.020;2022-09-20T06:21:02;8.20;99.90
5743;DHT22;2896;53.500;10.020;2022-09-20T06:23:31;8.40;99.90
5743;DHT22;2896;53.500;10.020;2022-09-20T06:26:02;8.60;99.90
5743;DHT22;2896;53.500;10.020;2022-09-20T06:28:34;8.60;99.90
5743;DHT22;2896;53.500;10.020;2022-09-20T06:31:04;8.80;99.90
5743;DHT22;2896;53.500;10.020;2022-09-20T06:33:39;9.20;99.90
5743;DHT22;2896;53.500;10.020;2022-09-20T06:36:11;9.70;99.90
5743;DHT22;2896;53.500;10.020;2022-09-20T06:39:05;10.00;99.90
5743;DHT22;2896;53.500;10.020;2022-09-20T06:41:53;10.20;99.90
5743;DHT22;2896;53.500;10.020;2022-09-20T06:44:20;10.30;99.90
5743;DHT22;2896;53.500;10.020;2022-09-20T06:46:47;10.40;99.90
5743;DHT22;2896;53.500;10.020;2022-09-20T06:49:13;10.50;99.90
5743;DHT22;2896;53.500;10.020;2022-09-20T06:51:40;10.60;99.90
5743;DHT22;2896;53.500;10.020;2022-09-20T06:54:14;10.70;99.90
5743;DHT22;2896;53.500;10.020;2022-09-20T06:56:42;10.70;99.90
5743;DHT22;2896;53.500;10.020;2022-09-20T06:59:12;10.80;99.90
5743;DHT22;2896;53.500;10.020;2022-09-20T07:01:40;10.90;99.90
5743;DHT22;2896;53.500;10.020;2022-09-20T07:04:07;11.00;99.90
5743;DHT22;2896;53.500;10.020;2022-09-20T07:06:34;11.00;99.90
5743;DHT22;2896;53.500;10.020;2022-09-20T07:09:01;11.10;99.90
5743;DHT22;2896;53.500;10.020;2022-09-20T07:11:27;11.20;99.90
5743;DHT22;2896;53.500;10.020;2022-09-20T07:13:55;11.20;99.90
5743;DHT22;2896;53.500;10.020;2022-09-20T07:16:24;11.40;99.90
5743;DHT22;2896;53.500;10.020;2022-09-20T07:18:51;11.50;99.90
5743;DHT22;2896;53.500;10.020;2022-09-20T07:21:19;11.60;99.90
5743;DHT22;2896;53.500;10.020;2022-09-20T07:23:46;11.60;99.90
5743;DHT22;2896;53.500;10.020;2022-09-20T07:26:16;11.60;99.90
5743;DHT22;2896;53.500;10.020;2022-09-20T07:28:44;11.60;99.90
5743;DHT22;2896;53.500;10.020;2022-09-20T07:31:10;11.70;99.90
5743;DHT22;2896;53.500;10.020;2022-09-20T07:33:38;11.80;99.90
5743;DHT22;2896;53.500;10.020;2022-09-20T07:36:05;11.90;99.90
5743;DHT22;2896;53.500;10.020;2022-09-20T07:38:32;11.90;99.90
5743;DHT22;2896;53.500;10.020;2022-09-20T07:41:00;12.10;99.90
5743;DHT22;2896;53.500;10.020;2022-09-20T07:43:27;12.10;99.90
5743;DHT22;2896;53.500;10.020;2022-09-20T07:45:54;12.30;99.90
5743;DHT22;2896;53.500;10.020;2022-09-20T07:48:23;12.40;99.90
5743;DHT22;2896;53.500;10.020;2022-09-20T07:50:51;12.50;99.90
5743;DHT22;2896;53.500;10.020;2022-09-20T07:53:19;12.60;99.90
5743;DHT22;2896;53.500;10.020;2022-09-20T07:55:56;12.60;99.90
5743;DHT22;2896;53.500;10.020;2022-09-20T07:58:22;12.60;99.90
5743;DHT22;2896;53.500;10.020;2022-09-20T08:00:51;12.80;99.90
5743;DHT22;2896;53.500;10.020;2022-09-20T08:03:18;13.00;99.90
5743;DHT22;2896;53.500;10.020;2022-09-20T08:05:44;13.10;99.90
5743;DHT22;2896;53.500;10.020;2022-09-20T08:08:12;13.20;99.90
5743;DHT22;2896;53.500;10.020;2022-09-20T08:10:39;13.20;99.90
5743;DHT22;2896;53.500;10.020;2022-09-20T08:13:06;13.30;99.90
5743;DHT22;2896;53.500;10.020;2022-09-20T08:15:32;13.40;1.00
5743;DHT22;2896;53.500;10.020;2022-09-20T08:17:59;13.40;1.00
5743;DHT22;2896;53.500;10.020;2022-09-20T08:20:26;13.50;1.00
5743;DHT22;2896;53.500;10.020;2022-09-20T08:22:53;13.50;75.40
5743;DHT22;2896;53.500;10.020;2022-09-20T08:25:21;13.50;99.90
5743;DHT22;2896;53.500;10.020;2022-09-20T08:27:51;13.50;74.50
5743;DHT22;2896;53.500;10.020;2022-09-20T08:30:18;13.50;99.90
5743;DHT22;2896;53.500;10.020;2022-09-20T08:32:45;13.50;1.00
5743;DHT22;2896;53.500;10.020;2022-09-20T08:35:11;13.50;1.00
5743;DHT22;2896;53.500;10.020;2022-09-20T08:37:39;13.60;1.00
5743;DHT22;2896;53.500;10.020;2022-09-20T08:40:08;13.60;1.00
5743;DHT22;2896;53.500;10.020;2022-09-20T08:42:36;13.70;1.00
5743;DHT22;2896;53.500;10.020;2022-09-20T08:45:05;13.70;1.00
5743;DHT22;2896;53.500;10.020;2022-09-20T08:47:36;13.80;1.00
5743;DHT22;2896;53.500;10.020;2022-09-20T08:50:05;13.90;1.00
5743;DHT22;2896;53.500;10.020;2022-09-20T08:52:35;13.90;1.00
5743;DHT22;2896;53.500;10.020;2022-09-20T08:55:12;13.90;1.00
5743;DHT22;2896;53.500;10.020;2022-09-20T08:57:46;14.10;1.00
5743;DHT22;2896;53.500;10.020;2022-09-20T09:00:16;14.30;99.90
5743;DHT22;2896;53.500;10.020;2022-09-20T09:02:43;14.40;99.90
5743;DHT22;2896;53.500;10.020;2022-09-20T09:05:27;14.40;99.90
5743;DHT22;2896;53.500;10.020;2022-09-20T09:07:56;14.30;99.90
5743;DHT22;2896;53.500;10.020;2022-09-20T09:10:23;14.40;99.90
5743;DHT22;2896;53.500;10.020;2022-09-20T09:12:51;14.50;99.90
5743;DHT22;2896;53.500;10.020;2022-09-20T09:15:22;14.80;99.90
5743;DHT22;2896;53.500;10.020;2022-09-20T09:17:52;15.00;99.90
5743;DHT22;2896;53.500;10.020;2022-09-20T09:20:21;15.00;99.90
5743;DHT22;2896;53.500;10.020;2022-09-20T09:22:58;14.70;99.90
5743;DHT22;2896;53.500;10.020;2022-09-20T09:25:26;14.60;99.90
5743;DHT22;2896;53.500;10.020;2022-09-20T09:27:57;14.80;99.90
5743;DHT22;2896;53.500;10.020;2022-09-20T09:30:26;15.00;99.90
5743;DHT22;2896;53.500;10.020;2022-09-20T09:33:15;15.20;99.90
5743;DHT22;2896;53.500;10.020;2022-09-20T09:35:42;15.30;99.90
5743;DHT22;2896;53.500;10.020;2022-09-20T09:38:16;15.50;99.90
5743;DHT22;2896;53.500;10.020;2022-09-20T09:40:50;15.60;99.90
5743;DHT22;2896;53.500;10.020;2022-09-20T09:43:24;15.40;99.90
5743;DHT22;2896;53.500;10.020;2022-09-20T09:45:53;15.50;99.90
5743;DHT22;2896;53.500;10.020;2022-09-20T09:48:23;15.60;99.90
5743;DHT22;2896;53.500;10.020;2022-09-20T09:51:07;16.00;99.90
5743;DHT22;2896;53.500;10.020;2022-09-20T09:53:34;16.10;99.90
5743;DHT22;2896;53.500;10.020;2022-09-20T09:59:26;16.40;99.90
5743;DHT22;2896;53.500;10.020;2022-09-20T10:02:01;16.50;99.90
5743;DHT22;2896;53.500;10.020;2022-09-20T10:04:35;16.20;99.90
5743;DHT22;2896;53.500;10.020;2022-09-20T10:07:08;16.10;99.90
5743;DHT22;2896;53.500;10.020;2022-09-20T10:09:56;16.00;99.90
5743;DHT22;2896;53.500;10.020;2022-09-20T10:12:37;16.00;99.90
5743;DHT22;2896;53.500;10.020;2022-09-20T10:15:17;16.00;99.90
5743;DHT22;2896;53.500;10.020;2022-09-20T10:17:53;15.90;99.90
5743;DHT22;2896;53.500;10.020;2022-09-20T10:20:34;15.60;99.90
5743;DHT22;2896;53.500;10.020;2022-09-20T10:23:13;15.50;99.90
5743;DHT22;2896;53.500;10.020;2022-09-20T10:25:47;15.50;99.90
5743;DHT22;2896;53.500;10.020;2022-09-20T10:28:26;15.80;99.90
5743;DHT22;2896;53.500;10.020;2022-09-20T10:31:04;16.20;99.90
5743;DHT22;2896;53.500;10.020;2022-09-20T10:33:37;16.80;99.90
5743;DHT22;2896;53.500;10.020;2022-09-20T10:36:17;17.20;99.90
5743;DHT22;2896;53.500;10.020;2022-09-20T10:38:53;17.70;99.90
5743;DHT22;2896;53.500;10.020;2022-09-20T10:41:31;18.00;99.90
5743;DHT22;2896;53.500;10.020;2022-09-20T10:44:35;17.60;99.90
5743;DHT22;2896;53.500;10.020;2022-09-20T10:47:09;17.20;99.90
5743;DHT22;2896;53.500;10.020;2022-09-20T10:49:41;17.20;99.90
5743;DHT22;2896;53.500;10.020;2022-09-20T10:52:22;17.10;99.90
5743;DHT22;2896;53.500;10.020;2022-09-20T10:55:02;16.90;99.90
5743;DHT22;2896;53.500;10.020;2022-09-20T10:57:58;16.60;99.90
5743;DHT22;2896;53.500;10.020;2022-09-20T11:00:36;16.70;99.90
5743;DHT22;2896;53.500;10.020;2022-09-20T11:03:18;17.10;99.90
5743;DHT22;2896;53.500;10.020;2022-09-20T11:05:56;17.50;99.90
5743;DHT22;2896;53.500;10.020;2022-09-20T11:08:28;17.60;99.90
5743;DHT22;2896;53.500;10.020;2022-09-20T11:11:01;17.90;99.90
5743;DHT22;2896;53.500;10.020;2022-09-20T11:13:37;18.30;99.90
5743;DHT22;2896;53.500;10.020;2022-09-20T11:16:09;18.50;99.90
5743;DHT22;2896;53.500;10.020;2022-09-20T11:18:42;18.70;99.90
5743;DHT22;2896;53.500;10.020;2022-09-20T11:21:18;18.60;99.90
5743;DHT22;2896;53.500;10.020;2022-09-20T11:23:51;18.90;99.90
5743;DHT22;2896;53.500;10.020;2022-09-20T11:26:25;18.90;99.90
5743;DHT22;2896;53.500;10.020;2022-09-20T11:28:56;19.40;99.90
5743;DHT22;2896;53.500;10.020;2022-09-20T11:31:25;19.70;99.90
5743;DHT22;2896;53.500;10.020;2022-09-20T11:33:58;19.60;99.90
5743;DHT22;2896;53.500;10.020;2022-09-20T11:36:29;19.90;99.90
5743;DHT22;2896;53.500;10.020;2022-09-20T11:39:01;19.90;99.90
5743;DHT22;2896;53.500;10.020;2022-09-20T11:41:30;19.90;99.90
5743;DHT22;2896;53.500;10.020;2022-09-20T11:43:59;19.70;99.90
5743;DHT22;2896;53.500;10.020;2022-09-20T11:46:31;19.30;99.90
5743;DHT22;2896;53.500;10.020;2022-09-20T11:49:02;18.90;99.90
5743;DHT22;2896;53.500;10.020;2022-09-20T11:54:41;18.10;99.90
5743;DHT22;2896;53.500;10.020;2022-09-20T11:57:14;18.10;99.90
5743;DHT22;2896;53.500;10.020;2022-09-20T11:59:47;17.90;99.90
5743;DHT22;2896;53.500;10.020;2022-09-20T12:02:19;17.70;99.90
5743;DHT22;2896;53.500;10.020;2022-09-20T12:04:48;17.60;99.90
5743;DHT22;2896;53.500;10.020;2022-09-20T12:07:19;17.50;99.90
5743;DHT22;2896;53.500;10.020;2022-09-20T12:09:53;17.40;99.90
5743;DHT22;2896;53.500;10.020;2022-09-20T12:12:33;18.10;99.90
5743;DHT22;2896;53.500;10.020;2022-09-20T12:15:04;18.90;99.90
5743;DHT22;2896;53.500;10.020;2022-09-20T12:21:19;19.90;99.90
5743;DHT22;2896;53.500;10.020;2022-09-20T12:23:59;20.50;99.90
5743;DHT22;2896;53.500;10.020;2022-09-20T12:26:44;21.00;99.90
5743;DHT22;2896;53.500;10.020;2022-09-20T12:32:54;20.80;99.90
5743;DHT22;2896;53.500;10.020;2022-09-20T12:38:57;21.30;99.90
5743;DHT22;2896;53.500;10.020;2022-09-20T12:41:25;21.40;99.90
5743;DHT22;2896;53.500;10.020;2022-09-20T12:44:22;21.00;99.90
5743;DHT22;2896;53.500;10.020;2022-09-20T12:46:52;21.10;99.90
5743;DHT22;2896;53.500;10.020;2022-09-20T12:49:27;21.40;99.90
5743;DHT22;2896;53.500;10.020;2022-09-20T12:52:21;21.30;99.90
5743;DHT22;2896;53.500;10.020;2022-09-20T12:55:08;21.80;99.90
5743;DHT22;2896;53.500;10.020;2022-09-20T12:57:36;22.10;99.90
5743;DHT22;2896;53.500;10.020;2022-09-20T13:00:06;22.30;99.90
5743;DHT22;2896;53.500;10.020;2022-09-20T13:02:58;22.20;99.90
5743;DHT22;2896;53.500;10.020;2022-09-20T13:05:34;21.90;99.90
5743;DHT22;2896;53.500;10.020;2022-09-20T13:08:11;22.00;99.90
5743;DHT22;2896;53.500;10.020;2022-09-20T13:10:43;22.20;99.90
5743;DHT22;2896;53.500;10.020;2022-09-20T13:13:29;21.40;99.90
5743;DHT22;2896;53.500;10.020;2022-09-20T13:15:57;20.60;99.90
5743;DHT22;2896;53.500;10.020;2022-09-20T13:18:26;20.10;99.90
5743;DHT22;2896;53.500;10.020;2022-09-20T13:20:55;20.30;99.90
5743;DHT22;2896;53.500;10.020;2022-09-20T13:23:26;20.40;99.90
5743;DHT22;2896;53.500;10.020;2022-09-20T13:25:56;20.60;99.90
5743;DHT22;2896;53.500;10.020;2022-09-20T13:28:28;20.00;99.90
5743;DHT22;2896;53.500;10.020;2022-09-20T13:31:28;19.80;99.90
5743;DHT22;2896;53.500;10.020;2022-09-20T13:34:11;20.10;99.90
5743;DHT22;2896;53.500;10.020;2022-09-20T13:36:37;20.70;99.90
5743;DHT22;2896;53.500;10.020;2022-09-20T13:39:05;20.90;99.90
5743;DHT22;2896;53.500;10.020;2022-09-20T13:41:34;21.00;99.90
5743;DHT22;2896;53.500;10.020;2022-09-20T13:44:02;21.40;99.90
5743;DHT22;2896;53.500;10.020;2022-09-20T13:46:30;21.50;99.90
5743;DHT22;2896;53.500;10.020;2022-09-20T13:49:11;21.40;99.90
5743;DHT22;2896;53.500;10.020;2022-09-20T13:51:39;21.80;99.90
5743;DHT22;2896;53.500;10.020;2022-09-20T13:54:25;22.00;99.90
5743;DHT22;2896;53.500;10.020;2022-09-20T13:56:55;22.30;99.90
5743;DHT22;2896;53.500;10.020;2022-09-20T13:59:23;22.20;99.90
5743;DHT22;2896;53.500;10.020;2022-09-20T14:01:51;22.40;99.90
5743;DHT22;2896;53.500;10.020;2022-09-20T14:04:20;22.80;99.90
5743;DHT22;2896;53.500;10.020;2022-09-20T14:06:48;22.80;99.90
5743;DHT22;2896;53.500;10.020;2022-09-20T14:09:19;22.90;99.90
5743;DHT22;2896;53.500;10.020;2022-09-20T14:11:47;22.50;99.90
5743;DHT22;2896;53.500;10.020;2022-09-20T14:14:17;21.70;99.90
5743;DHT22;2896;53.500;10.020;2022-09-20T14:16:45;21.10;99.90
5743;DHT22;2896;53.500;10.020;2022-09-20T14:19:15;20.70;99.90
5743;DHT22;2896;53.500;10.020;2022-09-20T14:21:43;20.00;99.90
5743;DHT22;2896;53.500;10.020;2022-09-20T14:24:24;19.70;99.90
5743;DHT22;2896;53.500;10.020;2022-09-20T14:27:16;19.30;99.90
5743;DHT22;2896;53.500;10.020;2022-09-20T14:29:45;19.50;99.90
5743;DHT22;2896;53.500;10.020;2022-09-20T14:32:38;19.70;99.90
5743;DHT22;2896;53.500;10.020;2022-09-20T14:35:13;20.10;99.90
5743;DHT22;2896;53.500;10.020;2022-09-20T14:37:42;19.90;99.90
5743;DHT22;2896;53.500;10.020;2022-09-20T14:40:19;20.40;99.90
5743;DHT22;2896;53.500;10.020;2022-09-20T14:42:49;20.80;99.90
5743;DHT22;2896;53.500;10.020;2022-09-20T14:45:26;20.90;99.90
5743;DHT22;2896;53.500;10.020;2022-09-20T14:48:03;21.20;99.90
5743;DHT22;2896;53.500;10.020;2022-09-20T14:50:31;21.20;99.90
5743;DHT22;2896;53.500;10.020;2022-09-20T14:53:22;21.00;99.90
5743;DHT22;2896;53.500;10.020;2022-09-20T14:55:57;20.80;99.90
5743;DHT22;2896;53.500;10.020;2022-09-20T14:58:24;21.00;99.90
5743;DHT22;2896;53.500;10.020;2022-09-20T15:00:54;21.40;99.90
5743;DHT22;2896;53.500;10.020;2022-09-20T15:03:26;21.60;99.90
5743;DHT22;2896;53.500;10.020;2022-09-20T15:05:54;21.40;99.90
5743;DHT22;2896;53.500;10.020;2022-09-20T15:08:21;21.40;99.90
5743;DHT22;2896;53.500;10.020;2022-09-20T15:10:48;21.40;99.90
5743;DHT22;2896;53.500;10.020;2022-09-20T15:13:15;21.20;99.90
5743;DHT22;2896;53.500;10.020;2022-09-20T15:15:48;20.90;99.90
5743;DHT22;2896;53.500;10.020;2022-09-20T15:18:19;20.60;99.90
5743;DHT22;2896;53.500;10.020;2022-09-20T15:20:47;20.40;99.90
5743;DHT22;2896;53.500;10.020;2022-09-20T15:23:14;20.60;99.90
5743;DHT22;2896;53.500;10.020;2022-09-20T15:25:41;20.60;99.90
5743;DHT22;2896;53.500;10.020;2022-09-20T15:28:11;20.40;99.90
5743;DHT22;2896;53.500;10.020;2022-09-20T15:30:40;20.20;99.90
5743;DHT22;2896;53.500;10.020;2022-09-20T15:33:09;20.40;99.90
5743;DHT22;2896;53.500;10.020;2022-09-20T15:35:38;20.30;99.90
5743;DHT22;2896;53.500;10.020;2022-09-20T15:38:04;20.30;99.90
5743;DHT22;2896;53.500;10.020;2022-09-20T15:40:33;20.00;99.90
5743;DHT22;2896;53.500;10.020;2022-09-20T15:42:59;20.10;99.90
5743;DHT22;2896;53.500;10.020;2022-09-20T15:45:26;19.90;99.90
5743;DHT22;2896;53.500;10.020;2022-09-20T15:47:53;19.80;99.90
5743;DHT22;2896;53.500;10.020;2022-09-20T15:50:21;19.70;99.90
5743;DHT22;2896;53.500;10.020;2022-09-20T15:52:50;19.70;99.90
5743;DHT22;2896;53.500;10.020;2022-09-20T15:55:17;19.50;99.90
5743;DHT22;2896;53.500;10.020;2022-09-20T15:57:44;19.40;99.90
5743;DHT22;2896;53.500;10.020;2022-09-20T16:00:12;19.40;99.90
5743;DHT22;2896;53.500;10.020;2022-09-20T16:02:39;19.20;99.90
5743;DHT22;2896;53.500;10.020;2022-09-20T16:05:06;19.10;99.90
5743;DHT22;2896;53.500;10.020;2022-09-20T16:07:34;19.00;99.90
5743;DHT22;2896;53.500;10.020;2022-09-20T16:10:02;19.00;99.90
5743;DHT22;2896;53.500;10.020;2022-09-20T16:12:29;18.70;99.90
5743;DHT22;2896;53.500;10.020;2022-09-20T16:14:55;18.60;99.90
5743;DHT22;2896;53.500;10.020;2022-09-20T16:17:22;18.50;99.90
5743;DHT22;2896;53.500;10.020;2022-09-20T16:20:09;18.20;99.90
5743;DHT22;2896;53.500;10.020;2022-09-20T16:22:35;18.10;99.90
5743;DHT22;2896;53.500;10.020;2022-09-20T16:25:03;18.00;99.90
5743;DHT22;2896;53.500;10.020;2022-09-20T16:27:31;17.90;99.90
5743;DHT22;2896;53.500;10.020;2022-09-20T16:29:58;17.80;99.90
5743;DHT22;2896;53.500;10.020;2022-09-20T16:32:25;17.70;99.90
5743;DHT22;2896;53.500;10.020;2022-09-20T16:34:51;17.60;99.90
5743;DHT22;2896;53.500;10.020;2022-09-20T16:37:19;17.40;99.90
5743;DHT22;2896;53.500;10.020;2022-09-20T16:39:47;17.50;99.90
5743;DHT22;2896;53.500;10.020;2022-09-20T16:42:15;17.30;99.90
5743;DHT22;2896;53.500;10.020;2022-09-20T16:44:42;17.20;99.90
5743;DHT22;2896;53.500;10.020;2022-09-20T16:47:11;16.90;99.90
5743;DHT22;2896;53.500;10.020;2022-09-20T16:49:41;16.70;99.90
5743;DHT22;2896;53.500;10.020;2022-09-20T16:52:07;16.60;99.90
5743;DHT22;2896;53.500;10.020;2022-09-20T16:54:34;16.50;99.90
5743;DHT22;2896;53.500;10.020;2022-09-20T16:57:01;16.30;99.90
5743;DHT22;2896;53.500;10.020;2022-09-20T16:59:29;16.00;99.90
5743;DHT22;2896;53.500;10.020;2022-09-20T17:01:56;15.90;99.90
5743;DHT22;2896;53.500;10.020;2022-09-20T17:04:23;15.70;99.90
5743;DHT22;2896;53.500;10.020;2022-09-20T17:06:50;15.50;99.90
5743;DHT22;2896;53.500;10.020;2022-09-20T17:09:17;15.30;99.90
5743;DHT22;2896;53.500;10.020;2022-09-20T17:11:45;15.20;99.90
5743;DHT22;2896;53.500;10.020;2022-09-20T17:14:14;15.10;99.90
5743;DHT22;2896;53.500;10.020;2022-09-20T17:16:43;14.90;99.90
5743;DHT22;2896;53.500;10.020;2022-09-20T17:19:13;14.70;99.90